createdAt,value
2018-03-06T00:01:25.291Z,80.40
2018-03-06T00:06:19.992Z,80.60
2018-03-06T00:11:14.704Z,80.80
2018-03-06T00:16:09.223Z,81.40
2018-03-06T00:21:03.733Z,81.70
2018-03-06T00:25:58.453Z,82.40
2018-03-06T00:30:53.530Z,82.40
2018-03-06T00:35:48.396Z,82.30
2018-03-06T00:40:43.263Z,83.10
2018-03-06T00:45:37.743Z,82.40
2018-03-06T00:50:33.336Z,83.40
2018-03-06T00:55:27.677Z,82.90
2018-03-06T01:00:25.210Z,83.10
2018-03-06T01:05:19.739Z,83.00
2018-03-06T01:10:14.269Z,82.90
2018-03-06T01:15:09.584Z,83.60
2018-03-06T01:20:04.280Z,83.60
2018-03-06T01:25:00.296Z,83.70
2018-03-06T01:29:54.931Z,83.70
2018-03-06T01:34:49.439Z,83.90
2018-03-06T01:39:44.712Z,84.20
2018-03-06T01:44:39.372Z,84.20
2018-03-06T01:49:33.943Z,84.40
2018-03-06T01:54:29.200Z,84.70
2018-03-06T01:59:23.705Z,84.70
2018-03-06T02:04:18.197Z,84.80
2018-03-06T02:09:12.839Z,84.70
2018-03-06T02:14:08.148Z,85.20
2018-03-06T02:19:03.432Z,85.40
2018-03-06T02:23:57.952Z,85.40
2018-03-06T02:28:54.675Z,85.90
2018-03-06T02:33:49.185Z,85.40
2018-03-06T02:38:43.700Z,85.90
2018-03-06T02:43:38.264Z,85.60
2018-03-06T02:48:33.537Z,84.70
2018-03-06T02:53:28.054Z,84.60
2018-03-06T02:58:22.604Z,84.10
2018-03-06T03:03:17.857Z,83.10
2018-03-06T03:08:12.371Z,82.90
2018-03-06T03:13:06.890Z,82.40
2018-03-06T03:18:01.382Z,82.00
2018-03-06T03:22:55.878Z,81.50
2018-03-06T03:27:50.511Z,81.00
2018-03-06T03:32:45.035Z,80.60
2018-03-06T03:37:39.635Z,80.20
2018-03-06T03:42:34.153Z,80.10
2018-03-06T03:47:28.656Z,80.00
2018-03-06T03:52:23.157Z,80.00
2018-03-06T03:57:17.848Z,79.90
2018-03-06T04:02:12.339Z,79.70
2018-03-06T04:07:07.405Z,79.90
2018-03-06T04:12:01.940Z,79.80
2018-03-06T04:16:57.225Z,79.50
2018-03-06T04:21:51.824Z,80.30
2018-03-06T04:26:46.312Z,79.50
2018-03-06T04:31:40.846Z,79.60
2018-03-06T04:36:35.360Z,79.80
2018-03-06T04:41:32.785Z,80.00
2018-03-06T04:46:27.280Z,80.00
2018-03-06T04:51:22.000Z,80.70
2018-03-06T04:56:16.507Z,80.20
2018-03-06T05:01:11.010Z,81.00
2018-03-06T05:06:05.630Z,81.00
2018-03-06T05:11:00.271Z,81.20
2018-03-06T05:15:55.207Z,81.40
2018-03-06T05:20:50.477Z,81.30
2018-03-06T05:25:45.236Z,81.30
2018-03-06T05:30:39.710Z,81.10
2018-03-06T05:35:34.215Z,81.00
2018-03-06T05:40:29.431Z,80.80
2018-03-06T05:45:24.213Z,80.70
2018-03-06T05:50:19.897Z,80.50
2018-03-06T05:55:15.190Z,80.30
2018-03-06T06:00:10.639Z,80.30
2018-03-06T06:05:04.463Z,80.20
2018-03-06T06:09:59.728Z,80.20
2018-03-06T06:14:54.226Z,80.10
2018-03-06T06:19:50.425Z,80.20
2018-03-06T06:24:45.531Z,80.40
2018-03-06T06:29:40.066Z,80.20
2018-03-06T06:34:34.394Z,79.90
2018-03-06T06:39:30.782Z,79.70
2018-03-06T06:44:25.296Z,79.30
2018-03-06T06:49:19.676Z,79.10
2018-03-06T06:54:14.407Z,79.00
2018-03-06T06:59:08.712Z,78.90
2018-03-06T07:04:03.005Z,78.60
2018-03-06T07:08:57.315Z,78.20
2018-03-06T07:13:52.932Z,78.30
2018-03-06T07:18:47.246Z,78.30
2018-03-06T07:23:41.596Z,77.90
2018-03-06T07:28:35.957Z,77.20
2018-03-06T07:33:31.031Z,76.70
2018-03-06T07:38:26.729Z,76.60
2018-03-06T07:43:21.060Z,76.50
2018-03-06T07:48:15.402Z,76.40
2018-03-06T07:53:09.693Z,76.10
2018-03-06T07:58:04.011Z,75.60
2018-03-06T08:02:59.168Z,73.80
2018-03-06T08:07:53.488Z,73.70
2018-03-06T08:12:47.957Z,73.10
2018-03-06T08:17:43.283Z,68.10
2018-03-06T08:22:38.392Z,61.90
2018-03-06T08:27:33.475Z,58.70
2018-03-06T08:32:27.805Z,58.60
2018-03-06T08:37:22.890Z,48.10
2018-03-06T08:42:17.194Z,48.00
2018-03-06T08:47:11.651Z,43.00
2018-03-06T08:52:06.025Z,40.20
2018-03-06T08:57:01.129Z,40.40
2018-03-06T09:01:55.477Z,40.40
2018-03-06T09:06:49.875Z,35.30
2018-03-06T09:11:44.962Z,31.40
2018-03-06T09:16:39.383Z,31.30
2018-03-06T09:21:34.649Z,28.80
2018-03-06T09:26:28.977Z,28.60
2018-03-06T09:31:23.308Z,25.00
2018-03-06T09:36:18.498Z,22.80
2018-03-06T09:41:12.875Z,22.70
2018-03-06T09:46:07.189Z,21.40
2018-03-06T09:51:01.522Z,19.60
2018-03-06T09:55:56.051Z,20.50
2018-03-06T10:00:51.144Z,25.20
2018-03-06T10:05:45.483Z,25.10
2018-03-06T10:10:39.832Z,30.70
2018-03-06T10:15:34.156Z,36.20
2018-03-06T10:20:28.489Z,40.30
2018-03-06T10:25:22.946Z,42.10
2018-03-06T10:30:17.267Z,43.60
2018-03-06T10:35:12.341Z,46.30
2018-03-06T10:40:06.742Z,46.30
2018-03-06T10:45:01.182Z,47.40
2018-03-06T10:49:55.597Z,48.20
2018-03-06T10:54:50.700Z,49.20
2018-03-06T10:59:45.052Z,49.20
2018-03-06T11:04:39.376Z,49.60
2018-03-06T11:09:33.810Z,49.60
2018-03-06T11:14:28.226Z,49.80
2018-03-06T11:19:22.687Z,49.90
2018-03-06T11:24:17.017Z,50.00
2018-03-06T11:29:11.329Z,49.90
2018-03-06T11:34:05.728Z,49.50
2018-03-06T11:39:00.056Z,49.70
2018-03-06T11:43:55.666Z,49.30
2018-03-06T11:48:52.254Z,49.30
2018-03-06T11:53:46.579Z,49.70
2018-03-06T11:58:40.903Z,50.00
2018-03-06T12:03:35.213Z,49.80
2018-03-06T12:08:29.604Z,50.00
2018-03-06T12:13:23.980Z,48.60
2018-03-06T12:18:18.765Z,48.30
2018-03-06T12:23:13.874Z,46.90
2018-03-06T12:28:08.955Z,46.20
2018-03-06T12:33:03.107Z,46.20
2018-03-06T12:37:57.430Z,47.10
2018-03-06T12:42:51.775Z,46.70
2018-03-06T12:47:46.317Z,46.90
2018-03-06T12:52:40.645Z,47.50
2018-03-06T12:57:35.026Z,46.60
2018-03-06T13:02:29.346Z,46.80
2018-03-06T13:07:23.674Z,47.20
2018-03-06T13:12:17.983Z,46.90
2018-03-06T13:17:12.472Z,46.90
2018-03-06T13:22:07.460Z,47.50
2018-03-06T13:27:01.769Z,47.70
2018-03-06T13:31:56.170Z,47.90
2018-03-06T13:36:50.497Z,47.30
2018-03-06T13:41:44.844Z,47.30
2018-03-06T13:46:39.178Z,48.00
2018-03-06T13:51:33.528Z,47.50
2018-03-06T13:56:28.610Z,48.20
2018-03-06T14:01:23.105Z,48.10
2018-03-06T14:06:17.689Z,48.10
2018-03-06T14:11:12.059Z,48.10
2018-03-06T14:16:07.269Z,49.50
2018-03-06T14:21:01.584Z,49.50
2018-03-06T14:25:56.701Z,50.20
2018-03-06T14:30:51.730Z,50.40
2018-03-06T14:35:46.809Z,50.60
2018-03-06T14:40:41.105Z,50.40
2018-03-06T14:45:35.440Z,50.70
2018-03-06T14:50:30.200Z,50.80
2018-03-06T14:55:24.342Z,51.20
2018-03-06T15:00:18.880Z,51.30
2018-03-06T15:05:13.189Z,51.30
2018-03-06T15:10:07.518Z,51.30
2018-03-06T15:15:01.883Z,51.40
2018-03-06T15:19:56.538Z,52.00
2018-03-06T15:24:51.129Z,52.80
2018-03-06T15:29:45.460Z,53.30
2018-03-06T15:34:39.840Z,54.10
2018-03-06T15:39:35.141Z,55.60
2018-03-06T15:44:29.495Z,55.60
2018-03-06T15:49:23.859Z,55.80
2018-03-06T15:54:19.122Z,56.30
2018-03-06T15:59:13.677Z,56.20
2018-03-06T16:04:08.100Z,57.20
2018-03-06T16:09:02.685Z,56.90
2018-03-06T16:13:57.209Z,57.30
2018-03-06T16:18:51.625Z,57.40
2018-03-06T16:23:45.968Z,58.20
2018-03-06T16:28:41.126Z,59.50
2018-03-06T16:33:35.482Z,59.50
2018-03-06T16:38:29.838Z,60.00
2018-03-06T16:43:24.310Z,61.00
2018-03-06T16:48:19.528Z,62.60
2018-03-06T16:53:14.625Z,63.20
2018-03-06T16:58:09.131Z,63.20
2018-03-06T17:03:04.538Z,65.60
2018-03-06T17:07:59.662Z,65.60
2018-03-06T17:12:54.430Z,65.20
2018-03-06T17:17:48.553Z,66.60
2018-03-06T17:22:43.212Z,66.70
2018-03-06T17:27:38.561Z,67.50
2018-03-06T17:32:33.229Z,67.40
2018-03-06T17:37:27.619Z,67.50
2018-03-06T17:42:22.142Z,68.30
2018-03-06T17:47:17.457Z,68.40
2018-03-06T17:52:11.981Z,68.30
2018-03-06T17:57:07.469Z,68.40
2018-03-06T18:02:01.986Z,68.40
2018-03-06T18:06:56.537Z,67.90
2018-03-06T18:11:52.562Z,69.70
2018-03-06T18:16:48.950Z,68.60
2018-03-06T18:21:43.378Z,68.60
2018-03-06T18:26:37.875Z,68.90
2018-03-06T18:31:32.362Z,68.90
2018-03-06T18:36:26.866Z,68.40
2018-03-06T18:41:21.226Z,68.50
2018-03-06T18:46:15.606Z,68.90
2018-03-06T18:51:14.191Z,70.00
2018-03-06T18:56:08.719Z,69.10
2018-03-06T19:17:04.444Z,68.50
2018-03-06T19:21:59.055Z,68.30
2018-03-06T19:26:54.988Z,71.80
2018-03-06T19:31:50.113Z,75.00
2018-03-06T19:36:45.761Z,76.20
2018-03-06T19:41:40.547Z,77.00
2018-03-06T19:46:35.203Z,76.30
2018-03-06T19:51:30.567Z,77.50
2018-03-06T19:56:24.937Z,77.40
2018-03-06T20:01:19.481Z,77.10
2018-03-06T20:06:14.139Z,77.10
2018-03-06T20:11:08.543Z,77.70
2018-03-06T20:16:04.009Z,77.60
2018-03-06T20:20:58.481Z,77.70
2018-03-06T20:25:58.450Z,77.90
2018-03-06T20:30:58.266Z,78.20
2018-03-06T20:35:52.697Z,77.90
2018-03-06T20:40:47.674Z,79.10
2018-03-06T20:45:48.588Z,78.50
2018-03-06T20:50:43.135Z,78.50
2018-03-06T20:55:38.331Z,78.50
2018-03-06T21:00:32.688Z,77.70
2018-03-06T21:05:27.064Z,77.60
2018-03-06T21:10:22.376Z,78.40
2018-03-06T21:15:17.454Z,78.40
2018-03-06T21:20:12.390Z,78.50
2018-03-06T21:25:07.467Z,78.50
2018-03-06T21:30:01.998Z,79.60
2018-03-06T21:34:56.495Z,80.30
2018-03-06T21:39:51.136Z,79.50
2018-03-06T21:44:45.547Z,78.80
2018-03-06T21:49:40.234Z,79.60
2018-03-06T21:54:34.539Z,79.90
2018-03-06T21:59:28.945Z,80.80
2018-03-06T22:04:23.334Z,85.00
2018-03-06T22:09:17.736Z,85.60
2018-03-06T22:14:12.102Z,85.40
2018-03-06T22:19:07.506Z,86.40
2018-03-06T22:24:01.973Z,86.20
2018-03-06T22:28:56.670Z,86.40
2018-03-06T22:33:50.904Z,86.70
2018-03-06T22:38:45.328Z,85.80
2018-03-06T22:43:40.353Z,85.60
2018-03-06T22:48:34.877Z,85.80
2018-03-06T22:53:29.178Z,86.30
2018-03-06T22:58:23.510Z,86.20
2018-03-06T23:03:17.940Z,85.90
2018-03-06T23:08:12.321Z,85.80
2018-03-06T23:13:08.901Z,85.00
2018-03-06T23:18:03.220Z,84.40
2018-03-06T23:22:59.348Z,84.30
2018-03-06T23:27:54.515Z,84.10
2018-03-06T23:32:48.900Z,83.90
2018-03-06T23:37:44.085Z,84.00
2018-03-06T23:42:38.481Z,83.90
2018-03-06T23:47:33.167Z,84.10
2018-03-06T23:52:27.545Z,83.70
2018-03-06T23:57:21.870Z,83.90
